Time;durP1;ratioP1;P1;durP2;ratioP2;P2;SDS_P1;SDS_P2;PMS_P1;PMS_P2;Temp;Humidity;BMP_temperature;BMP_pressure;BME280_temperature;BME280_humidity;BME280_pressure;Samples;Min_cycle;Max_cycle;Signal;HPM_P1;HPM_P2
2023/03/17 00:01:18;;;;;;;42.50;19.40;;;;;;;-0.97;63.54;101035.56;131332;1253;107581;-75
2023/03/17 00:04:26;;;;;;;43.80;20.30;;;;;;;-0.98;63.32;101042.92;131337;1250;107560;-78
2023/03/17 00:07:32;;;;;;;44.90;19.90;;;;;;;-0.99;63.28;101037.52;131095;1249;107645;-76
2023/03/17 00:10:37;;;;;;;45.10;21.80;;;;;;;-0.97;63.42;101034.14;131174;1252;105474;-76
2023/03/17 00:13:44;;;;;;;50.50;21.80;;;;;;;-0.94;63.63;101032.80;131316;1254;107500;-76
2023/03/17 00:16:52;;;;;;;47.50;20.60;;;;;;;-0.95;63.52;101028.65;131165;1251;106173;-76
2023/03/17 00:19:58;;;;;;;46.50;20.50;;;;;;;-0.98;63.31;101029.66;131331;1251;107323;-76
2023/03/17 00:23:04;;;;;;;46.70;19.20;;;;;;;-0.97;63.57;101021.93;131447;1251;107350;-76
2023/03/17 00:26:11;;;;;;;44.90;19.30;;;;;;;-0.95;63.35;101025.35;131140;1251;107405;-76
2023/03/17 00:29:19;;;;;;;48.90;21.20;;;;;;;-0.94;63.53;101029.17;131328;1254;107320;-76
2023/03/17 00:32:25;;;;;;;49.70;21.90;;;;;;;-0.94;63.34;101026.36;131309;1251;107400;-76
2023/03/17 00:35:31;;;;;;;56.10;22.80;;;;;;;-1.01;63.02;101029.92;131159;1251;107382;-76
2023/03/17 00:38:37;;;;;;;50.60;22.30;;;;;;;-1.02;63.41;101028.23;131232;1253;107374;-76
2023/03/17 00:41:43;;;;;;;53.70;24.40;;;;;;;-1.03;63.10;101025.13;131128;1253;107486;-76
2023/03/17 00:44:49;;;;;;;60.30;24.60;;;;;;;-1.09;63.31;101019.27;131113;1251;107528;-78
2023/03/17 00:47:56;;;;;;;57.00;24.20;;;;;;;-1.13;63.49;101009.96;131101;1250;107447;-75
2023/03/17 00:51:01;;;;;;;56.30;23.90;;;;;;;-1.15;63.40;101003.62;131150;1253;107546;-77
2023/03/17 00:54:09;;;;;;;55.90;24.10;;;;;;;-1.23;63.49;101004.92;131146;1253;107411;-76
2023/03/17 00:57:15;;;;;;;51.40;23.60;;;;;;;-1.28;63.45;101002.88;131065;1249;107471;-75
2023/03/17 01:00:25;;;;;;;56.00;24.00;;;;;;;-1.33;63.79;100995.73;131117;1249;107544;-76
2023/03/17 01:03:31;;;;;;;57.20;23.90;;;;;;;-1.36;63.37;100995.50;131096;1253;107417;-76
2023/03/17 01:06:37;;;;;;;54.10;25.10;;;;;;;-1.38;63.75;100988.94;131101;1252;107610;-75
2023/03/17 01:09:44;;;;;;;53.50;23.20;;;;;;;-1.40;63.82;100988.67;131358;1251;107205;-76
2023/03/17 01:12:50;;;;;;;50.30;22.90;;;;;;;-1.42;63.88;100987.53;131137;1251;107584;-76
2023/03/17 01:15:56;;;;;;;56.20;23.20;;;;;;;-1.47;63.92;100983.52;130977;1254;107601;-75
2023/03/17 01:19:03;;;;;;;49.90;23.70;;;;;;;-1.48;63.69;100986.17;131194;1253;107422;-75
2023/03/17 01:22:09;;;;;;;52.60;23.30;;;;;;;-1.48;64.05;100980.09;131039;1254;106428;-76
2023/03/17 01:25:15;;;;;;;52.30;24.00;;;;;;;-1.48;63.99;100980.09;131046;1256;107607;-77
2023/03/17 01:28:22;;;;;;;54.00;23.40;;;;;;;-1.52;63.91;100986.17;131080;1250;107594;-77
2023/03/17 01:31:28;;;;;;;56.50;24.90;;;;;;;-1.56;64.28;100979.69;131086;1252;107567;-76
2023/03/17 01:34:33;;;;;;;55.30;24.20;;;;;;;-1.61;63.79;100981.27;131077;1251;107209;-76
2023/03/17 01:37:40;;;;;;;51.70;24.10;;;;;;;-1.66;64.07;100973.24;131040;1253;107436;-76
2023/03/17 01:40:49;;;;;;;56.40;24.70;;;;;;;-1.68;63.91;100972.48;131239;1249;107547;-76
2023/03/17 01:43:55;;;;;;;55.90;24.20;;;;;;;-1.70;64.04;100972.89;131072;1253;107407;-76
2023/03/17 01:47:01;;;;;;;52.20;23.50;;;;;;;-1.73;64.02;100976.80;131096;1251;107503;-76
2023/03/17 01:50:11;;;;;;;53.30;23.20;;;;;;;-1.74;64.16;100975.45;131090;1253;107490;-76
2023/03/17 01:53:18;;;;;;;51.30;23.70;;;;;;;-1.74;64.23;100977.24;131088;1250;107250;-76
2023/03/17 01:56:23;;;;;;;56.10;23.90;;;;;;;-1.74;64.19;100973.56;131123;1250;107494;-76
2023/03/17 01:59:34;;;;;;;51.50;22.90;;;;;;;-1.72;64.14;100979.08;131006;1254;105805;-76
2023/03/17 02:02:42;;;;;;;53.00;24.70;;;;;;;-1.80;64.27;100976.71;131064;1254;107584;-77
2023/03/17 02:05:50;;;;;;;53.20;24.20;;;;;;;-1.81;64.18;100974.17;131104;1254;108411;-75
2023/03/17 02:08:56;;;;;;;49.50;23.60;;;;;;;-1.84;64.11;100973.58;131131;1253;107314;-76
2023/03/17 02:12:04;;;;;;;52.80;23.70;;;;;;;-1.89;64.46;100970.60;131270;1251;107504;-77
2023/03/17 02:15:11;;;;;;;50.10;23.40;;;;;;;-1.88;64.84;100964.14;130923;1249;243013;-76
2023/03/17 02:18:19;;;;;;;52.20;24.60;;;;;;;-1.87;64.65;100963.74;131325;1253;107529;-76
2023/03/17 02:21:41;;;;;;;54.20;24.30;;;;;;;-1.91;64.56;100964.94;131076;1254;107545;-77
2023/03/17 02:24:51;;;;;;;53.90;25.60;;;;;;;-1.95;64.70;100967.52;131119;1253;107695;-75
2023/03/17 02:28:01;;;;;;;49.10;22.70;;;;;;;-1.97;64.52;100970.36;131066;1253;105968;-77
2023/03/17 02:31:08;;;;;;;49.80;23.00;;;;;;;-1.99;64.68;100971.48;131061;1253;107553;-77
2023/03/17 02:34:14;;;;;;;47.60;21.80;;;;;;;-1.99;64.73;100978.48;131009;1254;108729;-76
2023/03/17 02:37:21;;;;;;;46.70;22.70;;;;;;;-1.99;64.84;100979.84;131190;1253;106692;-75
2023/03/17 02:40:27;;;;;;;53.10;22.40;;;;;;;-2.00;64.74;100977.42;131287;1253;107482;-76
2023/03/17 02:43:33;;;;;;;50.40;22.60;;;;;;;-2.04;64.66;100988.41;131214;1253;107368;-75
2023/03/17 02:46:39;;;;;;;47.40;21.50;;;;;;;-2.06;64.65;100986.75;131247;1250;107503;-79
2023/03/17 02:49:45;;;;;;;49.80;23.10;;;;;;;-2.04;64.97;100987.88;131044;1251;107628;-76
2023/03/17 02:52:51;;;;;;;47.60;22.30;;;;;;;-2.07;64.39;100993.57;131117;1252;107236;-76
2023/03/17 02:55:57;;;;;;;44.00;20.90;;;;;;;-2.09;64.83;100993.83;131133;1252;107551;-74
2023/03/17 02:59:03;;;;;;;45.60;21.20;;;;;;;-2.05;64.89;100991.77;131170;1253;107599;-76
2023/03/17 03:02:09;;;;;;;45.60;19.40;;;;;;;-2.00;64.49;100992.63;131344;1251;107408;-75
2023/03/17 03:05:14;;;;;;;50.10;21.50;;;;;;;-1.98;64.55;100997.05;131366;1251;107617;-77
2023/03/17 03:08:20;;;;;;;50.10;22.00;;;;;;;-1.98;64.84;100987.30;131214;1253;107542;-76
2023/03/17 03:11:28;;;;;;;48.30;21.20;;;;;;;-1.98;64.66;100994.64;131438;1251;107409;-75
2023/03/17 03:14:33;;;;;;;53.00;21.90;;;;;;;-1.97;64.82;100996.35;131243;1250;107350;-77
2023/03/17 03:17:39;;;;;;;50.50;22.80;;;;;;;-1.95;64.87;100995.23;131039;1253;107471;-75
2023/03/17 03:20:46;;;;;;;48.10;22.50;;;;;;;-1.95;64.79;100992.45;131147;1253;107517;-76
2023/03/17 03:23:51;;;;;;;46.60;22.30;;;;;;;-1.94;65.03;100988.23;131149;1251;107396;-76
2023/03/17 03:26:57;;;;;;;53.70;22.10;;;;;;;-1.89;64.92;100987.53;131159;1251;107509;-77
2023/03/17 03:30:06;;;;;;;47.00;22.10;;;;;;;-1.89;64.83;100994.67;131358;1253;108260;-76
2023/03/17 03:33:14;;;;;;;45.90;22.10;;;;;;;-1.92;64.75;100992.70;131439;1250;107377;-76
2023/03/17 03:36:20;;;;;;;48.00;22.30;;;;;;;-1.99;64.72;100999.20;131356;1253;107466;-76
2023/03/17 03:39:26;;;;;;;49.90;22.50;;;;;;;-2.06;64.62;101001.52;131324;1254;107625;-78
2023/03/17 03:42:31;;;;;;;48.30;22.40;;;;;;;-2.13;64.89;101005.63;131377;1253;107523;-78
2023/03/17 03:45:37;;;;;;;45.80;21.60;;;;;;;-2.18;64.83;101005.12;131328;1251;107527;-77
2023/03/17 03:48:43;;;;;;;50.40;21.60;;;;;;;-2.23;64.95;100997.78;131405;1253;107568;-77
2023/03/17 03:51:48;;;;;;;46.60;22.70;;;;;;;-2.29;65.12;101000.09;131267;1253;107513;-79
2023/03/17 03:54:54;;;;;;;48.10;22.30;;;;;;;-2.32;65.23;100994.45;131084;1251;105471;-77
2023/03/17 03:58:00;;;;;;;47.10;22.10;;;;;;;-2.32;65.13;100997.92;131061;1250;107509;-74
2023/03/17 04:01:08;;;;;;;49.00;22.90;;;;;;;-2.35;65.47;101000.99;131213;1253;108656;-79
2023/03/17 04:04:14;;;;;;;50.80;22.40;;;;;;;-2.39;65.23;100997.96;131072;1253;107535;-77
2023/03/17 04:07:20;;;;;;;47.80;22.80;;;;;;;-2.41;65.08;101004.52;131203;1260;107533;-77
2023/03/17 04:10:26;;;;;;;50.60;22.50;;;;;;;-2.44;65.38;100997.99;131301;1253;107525;-78
2023/03/17 04:13:31;;;;;;;47.80;22.70;;;;;;;-2.46;65.09;101000.14;131041;1263;107504;-77
2023/03/17 04:16:37;;;;;;;46.50;21.60;;;;;;;-2.54;65.35;101000.57;131058;1253;107502;-77
2023/03/17 04:19:43;;;;;;;50.30;22.90;;;;;;;-2.62;65.23;100999.11;131314;1253;107474;-78
2023/03/17 04:22:48;;;;;;;47.60;22.20;;;;;;;-2.65;65.32;100997.29;131124;1250;106682;-77
2023/03/17 04:25:55;;;;;;;47.30;23.00;;;;;;;-2.66;65.36;100995.59;131197;1253;107643;-77
2023/03/17 04:29:00;;;;;;;51.30;22.90;;;;;;;-2.63;65.49;100993.03;131086;1253;107546;-78
2023/03/17 04:32:07;;;;;;;48.40;22.80;;;;;;;-2.59;65.63;100992.39;131126;1253;107551;-78
2023/03/17 04:35:17;;;;;;;51.00;22.70;;;;;;;-2.58;65.41;100990.95;131095;1253;107616;-78
2023/03/17 04:38:22;;;;;;;47.70;23.50;;;;;;;-2.59;65.50;100989.42;131122;1253;106769;-77
2023/03/17 04:41:28;;;;;;;58.60;23.70;;;;;;;-2.61;65.73;100992.46;131178;1253;107508;-78
2023/03/17 04:44:34;;;;;;;57.10;25.30;;;;;;;-2.60;65.67;100991.56;131265;1253;107503;-78
2023/03/17 04:47:40;;;;;;;51.60;24.40;;;;;;;-2.59;65.82;100997.79;131272;1253;108703;-76
2023/03/17 04:50:46;;;;;;;56.90;25.50;;;;;;;-2.60;66.06;101001.11;131362;1253;105762;-78
2023/03/17 04:53:52;;;;;;;55.20;25.20;;;;;;;-2.58;66.05;101008.52;131274;1250;107864;-77
2023/03/17 04:56:58;;;;;;;61.60;25.20;;;;;;;-2.57;65.90;101013.23;131330;1253;107548;-76
2023/03/17 05:00:04;;;;;;;55.50;23.50;;;;;;;-2.56;65.91;101024.54;130981;1254;108151;-77
2023/03/17 05:03:10;;;;;;;49.10;21.90;;;;;;;-2.49;65.72;101023.60;131297;1263;107361;-77
2023/03/17 05:06:16;;;;;;;53.60;22.80;;;;;;;-2.37;65.72;101024.22;131317;1251;107910;-77
2023/03/17 05:09:22;;;;;;;51.20;20.90;;;;;;;-2.23;65.76;101025.34;131232;1253;107514;-78
2023/03/17 05:12:27;;;;;;;52.50;24.00;;;;;;;-2.09;65.57;101029.19;131062;1250;107242;-77
2023/03/17 05:15:33;;;;;;;57.90;26.00;;;;;;;-1.98;65.71;101033.17;131054;1251;107245;-76
2023/03/17 05:18:40;;;;;;;62.90;28.60;;;;;;;-1.87;65.71;101042.20;131059;1253;107642;-77
2023/03/17 05:21:46;;;;;;;52.60;26.10;;;;;;;-1.79;66.05;101041.06;131195;1253;107353;-77
2023/03/17 05:24:52;;;;;;;47.70;23.70;;;;;;;-1.72;65.81;101035.38;131107;1250;107362;-77
2023/03/17 05:27:58;;;;;;;46.80;23.60;;;;;;;-1.68;65.89;101036.98;131012;1257;107503;-76
2023/03/17 05:31:04;;;;;;;52.60;25.10;;;;;;;-1.66;65.80;101029.61;131160;1255;107600;-78
2023/03/17 05:34:09;;;;;;;49.30;23.50;;;;;;;-1.62;66.16;101028.76;131111;1255;107552;-78
2023/03/17 05:37:16;;;;;;;50.10;23.60;;;;;;;-1.55;66.31;101027.11;131113;1254;107483;-78
2023/03/17 05:40:22;;;;;;;47.10;23.20;;;;;;;-1.49;66.50;101029.84;131353;1251;107234;-77
2023/03/17 05:43:28;;;;;;;56.30;29.00;;;;;;;-1.44;66.53;101034.52;131265;1251;107337;-77
2023/03/17 05:46:34;;;;;;;50.60;25.90;;;;;;;-1.37;66.61;101032.02;131356;1253;106468;-77
2023/03/17 05:49:39;;;;;;;49.90;25.50;;;;;;;-1.30;66.93;101031.91;131123;1253;109032;-78
2023/03/17 05:52:46;;;;;;;50.60;25.50;;;;;;;-1.23;66.95;101032.36;131071;1249;107557;-79
2023/03/17 05:55:52;;;;;;;50.10;26.70;;;;;;;-1.15;67.25;101031.17;131059;1251;107375;-77
2023/03/17 05:58:58;;;;;;;51.80;26.10;;;;;;;-1.04;67.19;101021.84;131245;1253;107459;-77
2023/03/17 06:02:03;;;;;;;60.00;31.30;;;;;;;-0.93;67.73;101020.55;131327;1253;107465;-78
2023/03/17 06:05:10;;;;;;;53.30;27.40;;;;;;;-0.83;67.60;101020.31;131363;1251;107413;-78
2023/03/17 06:08:16;;;;;;;59.80;29.30;;;;;;;-0.73;68.04;101019.06;131243;1253;107589;-78
2023/03/17 06:11:21;;;;;;;70.80;32.90;;;;;;;-0.62;67.89;101031.72;131520;1250;106661;-76
2023/03/17 06:14:27;;;;;;;56.40;31.20;;;;;;;-0.50;68.18;101031.90;131164;1253;107676;-78
2023/03/17 06:17:33;;;;;;;61.80;29.10;;;;;;;-0.33;68.33;101027.90;131321;1253;107268;-77
2023/03/17 06:20:38;;;;;;;58.70;31.10;;;;;;;-0.15;68.27;101025.89;131183;1253;107352;-77
2023/03/17 06:23:44;;;;;;;50.90;26.00;;;;;;;0.05;68.36;101021.05;131323;1253;107402;-77
2023/03/17 06:26:51;;;;;;;48.50;24.60;;;;;;;0.19;68.27;101021.80;131375;1251;107487;-77
2023/03/17 06:29:58;;;;;;;48.50;26.60;;;;;;;0.33;68.18;101019.10;131377;1248;107435;-78
2023/03/17 06:33:04;;;;;;;54.50;31.80;;;;;;;0.46;68.43;101011.70;131344;1253;107366;-76
2023/03/17 06:36:10;;;;;;;51.30;27.30;;;;;;;0.56;68.48;101008.96;131339;1267;106879;-78
2023/03/17 06:39:17;;;;;;;41.20;24.00;;;;;;;0.66;68.51;101006.77;131031;1253;107622;-76
2023/03/17 06:42:23;;;;;;;50.40;28.90;;;;;;;0.75;68.52;101007.19;131344;1253;107632;-79
2023/03/17 06:45:29;;;;;;;35.70;21.90;;;;;;;0.84;68.63;101012.23;131153;1251;107530;-76
2023/03/17 06:48:34;;;;;;;35.90;20.10;;;;;;;0.93;68.75;101009.52;131166;1254;107535;-77
2023/03/17 06:51:40;;;;;;;37.10;20.80;;;;;;;1.03;68.85;101009.73;131071;1253;107629;-78
2023/03/17 06:54:46;;;;;;;192.60;85.90;;;;;;;1.14;68.86;101009.58;131121;1251;107226;-78
2023/03/17 06:57:53;;;;;;;87.00;37.40;;;;;;;1.25;68.93;101015.52;131181;1250;107359;-79
2023/03/17 07:00:59;;;;;;;42.90;20.00;;;;;;;1.36;68.85;101013.56;131309;1253;107405;-77
2023/03/17 07:04:05;;;;;;;37.10;18.60;;;;;;;1.46;68.81;101016.58;131120;1253;107353;-78
2023/03/17 07:07:11;;;;;;;41.30;20.90;;;;;;;1.57;68.80;101014.80;131225;1253;108511;-77
2023/03/17 07:10:17;;;;;;;26.20;14.40;;;;;;;1.69;68.71;101013.20;131087;1253;107554;-78
2023/03/17 07:13:23;;;;;;;26.00;14.10;;;;;;;1.80;68.52;101018.59;131231;1253;107528;-78
2023/03/17 07:16:29;;;;;;;22.50;12.10;;;;;;;1.92;68.51;101024.09;131278;1251;107568;-78
2023/03/17 07:19:35;;;;;;;22.50;11.50;;;;;;;2.07;68.20;101019.32;131080;1263;106358;-76
2023/03/17 07:22:41;;;;;;;17.60;9.50;;;;;;;2.24;68.12;101012.42;131315;1251;106402;-77
2023/03/17 07:25:47;;;;;;;18.30;10.30;;;;;;;2.45;68.19;101008.36;131329;1253;107505;-78
2023/03/17 07:28:52;;;;;;;17.00;10.10;;;;;;;2.67;68.01;101010.15;131010;1251;107526;-77
2023/03/17 07:31:58;;;;;;;16.60;10.40;;;;;;;2.85;67.88;101009.34;131074;1253;107405;-77
2023/03/17 07:35:04;;;;;;;18.20;10.30;;;;;;;3.01;67.72;101010.38;131066;1253;106522;-78
2023/03/17 07:38:10;;;;;;;18.50;10.90;;;;;;;3.13;67.59;101007.58;131213;1263;107572;-77
2023/03/17 07:41:16;;;;;;;17.30;10.30;;;;;;;3.23;67.34;101007.72;131230;1251;107510;-78
2023/03/17 07:44:22;;;;;;;18.70;10.60;;;;;;;3.30;67.14;101014.38;131226;1253;107518;-77
2023/03/17 07:47:28;;;;;;;17.20;10.60;;;;;;;3.37;67.12;101016.08;131362;1251;107524;-78
2023/03/17 07:50:34;;;;;;;21.50;12.70;;;;;;;3.44;66.91;101003.35;131107;1253;105574;-77
2023/03/17 07:53:39;;;;;;;19.80;11.20;;;;;;;3.53;66.98;100996.89;131255;1253;107505;-79
2023/03/17 07:56:45;;;;;;;18.60;10.40;;;;;;;3.60;66.64;101004.20;131185;1253;107471;-78
2023/03/17 07:59:50;;;;;;;21.50;11.10;;;;;;;3.68;66.57;101003.91;131057;1250;107595;-78
2023/03/17 08:02:56;;;;;;;19.00;10.60;;;;;;;3.76;66.59;100995.19;131087;1253;107507;-78
2023/03/17 08:06:02;;;;;;;18.90;10.90;;;;;;;3.84;66.23;100998.73;131107;1253;107433;-80
2023/03/17 08:09:08;;;;;;;18.40;11.20;;;;;;;3.91;66.18;100999.88;131174;1253;107483;-77
2023/03/17 08:12:14;;;;;;;18.40;10.70;;;;;;;4.00;65.81;101002.71;131196;1251;107285;-79
2023/03/17 08:15:20;;;;;;;19.60;10.90;;;;;;;4.07;65.81;101001.75;131346;1253;107653;-78
2023/03/17 08:18:26;;;;;;;19.80;11.40;;;;;;;4.14;65.42;101003.13;131173;1248;107490;-78
2023/03/17 08:21:32;;;;;;;24.50;14.40;;;;;;;4.20;65.60;100998.37;131281;1247;106270;-79
2023/03/17 08:24:38;;;;;;;25.70;14.60;;;;;;;4.26;65.57;100991.42;131211;1253;107508;-79
2023/03/17 08:27:44;;;;;;;28.20;16.20;;;;;;;4.35;65.31;100987.06;131394;1253;107342;-80
2023/03/17 08:30:49;;;;;;;34.30;17.50;;;;;;;4.43;65.03;100984.43;131464;1248;107257;-77
2023/03/17 08:33:56;;;;;;;30.10;15.40;;;;;;;4.49;64.94;100984.07;131414;1254;107128;-79
2023/03/17 08:37:03;;;;;;;39.10;16.50;;;;;;;4.55;65.01;100990.35;131154;1251;107198;-78
2023/03/17 08:40:11;;;;;;;50.40;23.60;;;;;;;4.62;64.74;100991.14;131202;1253;107491;-78
2023/03/17 08:43:17;;;;;;;26.00;13.00;;;;;;;4.71;64.89;100987.22;131148;1253;107434;-78
2023/03/17 08:46:25;;;;;;;32.50;16.80;;;;;;;4.81;64.60;100990.47;131346;1254;108497;-76
2023/03/17 08:49:33;;;;;;;54.60;35.10;;;;;;;4.89;64.38;100989.98;131370;1253;107372;-79
2023/03/17 08:52:39;;;;;;;42.20;19.90;;;;;;;4.98;64.51;100992.61;131157;1250;107486;-78
2023/03/17 08:55:45;;;;;;;25.40;13.60;;;;;;;5.07;64.29;100993.91;131368;1250;107301;-78
2023/03/17 08:58:52;;;;;;;19.80;10.60;;;;;;;5.17;63.35;100998.77;131173;1254;107317;-77
2023/03/17 09:01:58;;;;;;;14.30;8.90;;;;;;;5.24;63.19;100997.76;131152;1253;108673;-79
2023/03/17 09:05:04;;;;;;;19.50;12.40;;;;;;;5.32;63.56;100996.35;131157;1253;108586;-79
2023/03/17 09:08:11;;;;;;;18.60;10.80;;;;;;;5.40;62.93;100997.25;131060;1251;107494;-79
2023/03/17 09:11:20;;;;;;;19.60;10.80;;;;;;;5.50;62.96;101007.55;131135;1254;107192;-78
2023/03/17 09:14:26;;;;;;;15.20;8.70;;;;;;;5.60;62.59;101007.25;131326;1253;107439;-80
2023/03/17 09:17:32;;;;;;;16.00;7.60;;;;;;;5.69;62.62;100993.91;131467;1263;106700;-80
2023/03/17 09:20:37;;;;;;;12.30;7.80;;;;;;;5.79;62.27;100994.12;131360;1251;107544;-77
2023/03/17 09:23:43;;;;;;;15.40;7.90;;;;;;;5.88;62.35;100979.93;131334;1253;107530;-78
2023/03/17 09:26:49;;;;;;;19.10;10.00;;;;;;;5.96;62.13;100977.30;131367;1254;107463;-78
2023/03/17 09:29:55;;;;;;;26.80;13.70;;;;;;;6.03;61.72;100969.92;131121;1261;107349;-78
2023/03/17 09:33:01;;;;;;;16.90;9.20;;;;;;;6.09;61.67;100965.07;131417;1251;107235;-79
2023/03/17 09:36:07;;;;;;;19.90;10.60;;;;;;;6.18;61.52;100960.17;131087;1253;107424;-79
2023/03/17 09:39:13;;;;;;;17.00;9.90;;;;;;;6.28;61.29;100956.66;131041;1251;106552;-79
2023/03/17 09:42:42;;;;;;;14.90;9.20;;;;;;;6.40;61.22;100956.39;131020;1253;107519;-80
2023/03/17 09:45:47;;;;;;;14.50;8.10;;;;;;;6.53;60.98;100954.19;131435;1254;107349;-77
2023/03/17 09:49:02;;;;;;;14.70;8.80;;;;;;;6.64;61.26;100941.39;131315;1254;107436;-78
2023/03/17 09:52:14;;;;;;;19.90;8.80;;;;;;;6.76;60.58;100929.06;131320;1254;107543;-79
2023/03/17 09:55:30;;;;;;;15.10;8.90;;;;;;;6.89;60.67;100929.66;131337;1257;107659;-80
2023/03/17 09:58:37;;;;;;;12.30;7.70;;;;;;;7.01;59.31;100925.07;131358;1256;107185;-77
2023/03/17 10:01:44;;;;;;;13.70;9.10;;;;;;;7.14;58.86;100918.88;131391;1263;107589;-78
2023/03/17 10:04:50;;;;;;;14.70;8.70;;;;;;;7.29;59.11;100908.86;131362;1253;107542;-81
2023/03/17 10:08:05;;;;;;;12.40;7.50;;;;;;;7.44;58.82;100907.17;131306;1261;106162;-79
2023/03/17 10:11:21;;;;;;;11.60;6.40;;;;;;;7.59;58.52;100906.23;131225;1254;106632;-80
2023/03/17 10:14:41;;;;;;;10.60;6.60;;;;;;;7.75;58.56;100908.76;131398;1254;106522;-80
2023/03/17 10:17:48;;;;;;;11.10;6.30;;;;;;;7.94;58.14;100912.42;131414;1253;106572;-78
2023/03/17 10:20:59;;;;;;;10.80;5.80;;;;;;;8.07;57.43;100916.17;131446;1254;107417;-77
2023/03/17 10:24:07;;;;;;;15.10;8.80;;;;;;;8.20;57.65;100913.16;131253;1257;107250;-80
2023/03/17 10:27:14;;;;;;;22.20;12.40;;;;;;;8.36;57.87;100922.73;131323;1254;107410;-79
2023/03/17 10:30:22;;;;;;;13.80;7.80;;;;;;;8.52;56.95;100928.63;131412;1257;107543;-80
2023/03/17 10:33:29;;;;;;;13.30;7.40;;;;;;;8.61;57.24;100923.93;131327;1253;107498;-80
2023/03/17 10:36:37;;;;;;;16.50;8.70;;;;;;;8.70;56.04;100924.45;131413;1258;107421;-81
2023/03/17 10:39:49;;;;;;;15.30;8.70;;;;;;;8.81;57.10;100923.08;131382;1257;108527;-78
2023/03/17 10:43:06;;;;;;;10.90;5.80;;;;;;;8.94;54.96;100913.33;131235;1254;107548;-79
2023/03/17 10:46:21;;;;;;;12.20;7.60;;;;;;;9.00;55.09;100900.91;131161;1254;107366;-80
2023/03/17 10:49:26;;;;;;;14.90;8.20;;;;;;;9.06;53.51;100903.46;131361;1263;107408;-80
2023/03/17 10:52:36;;;;;;;8.70;5.20;;;;;;;9.12;54.55;100909.67;131156;1253;107445;-80
2023/03/17 10:55:48;;;;;;;13.90;7.60;;;;;;;9.21;54.24;100905.23;131241;1256;107566;-79
2023/03/17 10:58:55;;;;;;;9.10;4.80;;;;;;;9.31;54.33;100899.92;131290;1264;107390;-78
2023/03/17 11:02:08;;;;;;;12.70;8.00;;;;;;;9.41;54.72;100892.74;131380;1261;107620;-77
2023/03/17 11:05:19;;;;;;;;;;;;;;;9.53;52.35;100893.26;131364;1254;108635;-79
2023/03/17 11:08:25;;;;;;;11.70;6.00;;;;;;;9.60;52.97;100893.58;131183;1261;107498;-80
2023/03/17 11:11:33;;;;;;;14.30;7.20;;;;;;;9.64;53.29;100891.82;131335;1254;108558;-78
2023/03/17 11:14:43;;;;;;;9.80;5.00;;;;;;;9.69;52.39;100891.90;131361;1253;107565;-80
2023/03/17 11:17:55;;;;;;;10.90;6.10;;;;;;;9.70;51.41;100883.80;131349;1253;108418;-79
2023/03/17 11:21:02;;;;;;;;;;;;;;;9.76;52.59;100880.86;131394;1254;107217;-77
2023/03/17 11:24:12;;;;;;;16.00;7.90;;;;;;;9.85;52.45;100874.56;131210;1254;107473;-80
2023/03/17 11:27:29;;;;;;;13.80;6.80;;;;;;;9.90;51.14;100865.27;131387;1263;107507;-79
2023/03/17 11:30:39;;;;;;;12.00;5.00;;;;;;;9.92;51.38;100855.85;131359;1264;107536;-80
2023/03/17 11:33:55;;;;;;;8.50;4.60;;;;;;;9.96;51.77;100851.89;131074;1262;106791;-79
2023/03/17 11:37:09;;;;;;;11.20;6.80;;;;;;;10.00;52.09;100851.19;131146;1254;107437;-80
2023/03/17 11:40:21;;;;;;;13.90;6.80;;;;;;;10.04;50.53;100843.89;131139;1253;107358;-81
2023/03/17 11:43:37;;;;;;;15.90;8.40;;;;;;;10.05;51.01;100835.48;131181;1263;107403;-80
2023/03/17 11:46:51;;;;;;;12.40;7.10;;;;;;;10.00;49.83;100838.05;131184;1254;107261;-79
2023/03/17 11:50:08;;;;;;;8.00;5.10;;;;;;;10.00;50.87;100839.80;131138;1254;107238;-79
2023/03/17 11:53:37;;;;;;;10.80;5.40;;;;;;;10.04;50.74;100835.18;131038;1254;107243;-80
2023/03/17 11:56:49;;;;;;;8.40;4.60;;;;;;;10.07;50.21;100828.60;131133;1253;107545;-78
2023/03/17 11:59:59;;;;;;;8.20;4.50;;;;;;;10.12;49.96;100821.38;131198;1247;107577;-79
2023/03/17 12:03:18;;;;;;;8.50;5.20;;;;;;;10.18;49.83;100813.51;131290;1252;106542;-78
2023/03/17 12:06:29;;;;;;;10.70;8.50;;;;;;;10.23;50.28;100808.83;131159;1254;107284;-78
2023/03/17 12:09:42;;;;;;;11.50;3.80;;;;;;;10.28;48.80;100814.41;131137;1254;107486;-79
2023/03/17 12:12:51;;;;;;;6.30;4.10;;;;;;;10.32;49.38;100810.94;131249;1254;106443;-79
2023/03/17 12:16:04;;;;;;;6.80;3.40;;;;;;;10.36;49.07;100810.75;131199;1253;106510;-80
2023/03/17 12:19:16;;;;;;;9.10;4.20;;;;;;;10.40;49.16;100814.98;131148;1255;107481;-81
2023/03/17 12:22:27;;;;;;;6.10;3.70;;;;;;;10.41;48.60;100813.48;131301;1263;107701;-80
2023/03/17 12:25:35;;;;;;;12.20;7.90;;;;;;;10.45;49.56;100807.77;131227;1252;107416;-78
2023/03/17 12:28:46;;;;;;;8.60;4.30;;;;;;;10.50;48.65;100806.95;131261;1261;107494;-78
2023/03/17 12:31:58;;;;;;;8.10;4.70;;;;;;;10.53;48.63;100806.38;131210;1258;108661;-79
2023/03/17 12:35:22;;;;;;;7.30;4.00;;;;;;;10.53;48.37;100804.21;131105;1254;107349;-77
2023/03/17 12:38:35;;;;;;;6.10;3.70;;;;;;;10.56;49.11;100802.84;131121;1263;107358;-79
2023/03/17 12:42:04;;;;;;;6.10;3.70;;;;;;;10.62;48.28;100802.34;131153;1251;107515;-78
2023/03/17 12:45:29;;;;;;;10.80;5.90;;;;;;;10.67;48.44;100790.13;131028;1254;107387;-79
2023/03/17 12:48:47;;;;;;;9.40;5.70;;;;;;;10.68;48.17;100781.69;131180;1254;108687;-77
2023/03/17 12:52:02;;;;;;;8.00;5.40;;;;;;;10.70;47.77;100772.24;131354;1263;107572;-79
2023/03/17 12:55:13;;;;;;;9.50;6.20;;;;;;;10.70;47.08;100766.70;131325;1264;107372;-78
2023/03/17 12:58:29;;;;;;;8.90;4.60;;;;;;;10.72;47.47;100772.80;131086;1256;107660;-80
2023/03/17 13:01:38;;;;;;;8.00;5.20;;;;;;;10.75;47.25;100768.92;131395;1255;107434;-79
2023/03/17 13:04:56;;;;;;;7.90;4.40;;;;;;;10.75;46.71;100762.56;131327;1254;107502;-80
2023/03/17 13:08:05;;;;;;;7.60;4.20;;;;;;;10.75;46.73;100746.70;131363;1263;107369;-79
2023/03/17 13:11:26;;;;;;;7.60;4.80;;;;;;;10.77;46.51;100751.11;131354;1255;107366;-80
2023/03/17 13:14:43;;;;;;;7.90;3.80;;;;;;;10.77;46.12;100751.98;131381;1251;107299;-81
2023/03/17 13:17:49;;;;;;;8.10;4.10;;;;;;;10.80;46.85;100753.33;131257;1263;107500;-80
2023/03/17 13:21:12;;;;;;;8.30;3.60;;;;;;;10.79;45.57;100748.58;131508;1248;107511;-80
2023/03/17 13:24:41;;;;;;;8.90;4.00;;;;;;;10.75;46.02;100740.27;131334;1253;105987;-80
2023/03/17 13:27:48;;;;;;;7.70;4.70;;;;;;;10.70;45.76;100743.94;131441;1254;107484;-80
2023/03/17 13:31:08;;;;;;;7.20;4.20;;;;;;;10.69;46.61;100738.49;131369;1248;107442;-80
2023/03/17 13:34:16;;;;;;;10.90;4.60;;;;;;;10.72;46.24;100740.55;131399;1254;107494;-78
2023/03/17 13:37:29;;;;;;;7.00;3.80;;;;;;;10.72;45.96;100737.54;131357;1254;107575;-78
2023/03/17 13:40:48;;;;;;;6.80;4.10;;;;;;;10.70;46.37;100735.08;131372;1254;107548;-78
2023/03/17 13:44:07;;;;;;;7.20;4.10;;;;;;;10.70;46.07;100733.60;131166;1251;107632;-80
2023/03/17 13:47:33;;;;;;;8.50;3.70;;;;;;;10.70;45.04;100729.53;131185;1254;107528;-78
2023/03/17 13:50:42;;;;;;;5.60;3.60;;;;;;;10.66;45.22;100725.80;131442;1263;107409;-79
2023/03/17 13:53:52;;;;;;;8.50;4.00;;;;;;;10.61;45.49;100726.97;131381;1253;107551;-78
2023/03/17 13:57:00;;;;;;;10.40;6.60;;;;;;;10.54;45.03;100707.56;131152;1255;108556;-80
2023/03/17 14:00:21;;;;;;;7.80;4.30;;;;;;;10.47;45.28;100692.91;131200;1263;106396;-80
2023/03/17 14:03:36;;;;;;;6.10;4.10;;;;;;;10.37;44.52;100687.60;131151;1254;109835;-81
2023/03/17 14:06:42;;;;;;;8.60;4.80;;;;;;;10.28;45.32;100692.80;131203;1260;107555;-79